WWA152 TJSJ-MKJP
Flight info
| Callsign | WWA152 |
|---|---|
| Flight time | 1h 36m |
| Altitude | 38000 |
| Route | SJU RTE2 BQN B520 ANTEX UL577 KEBET UG633 MLY ELSER6 |
| Aircraft | A319/M-SDE3FGHIRWY/LB1 |
Departure
| Time | 2026-05-06 14:38 |
|---|---|
| Airport | Luis Munoz Marin International Airport (TJSJ) |
Arrival
| Time | 2026-05-06 16:14 |
|---|---|
| Airport | Norman Manley International Airport (MKJP) |
| Time | Latitude | Longitude | Altitude | Speed | Heading |
|---|---|---|---|---|---|
| 2026-05-06 14:11 | 18.43629 | -66.00178 | 22 ft | 0 kts | 345° |
| 2026-05-06 14:27 | 18.43626 | -66.00178 | 22 ft | 2 kts | 345° |
| 2026-05-06 14:27 | 18.43611 | -66.00174 | 22 ft | 2 kts | 344° |
| 2026-05-06 14:28 | 18.43597 | -66.00169 | 22 ft | 2 kts | 345° |
| 2026-05-06 14:28 | 18.43582 | -66.00166 | 22 ft | 2 kts | 345° |
| 2026-05-06 14:28 | 18.43567 | -66.00161 | 21 ft | 2 kts | 345° |
| 2026-05-06 14:28 | 18.43557 | -66.00158 | 21 ft | 0 kts | 347° |
| 2026-05-06 14:29 | 18.43553 | -66.00157 | 21 ft | 0 kts | 294° |
| 2026-05-06 14:29 | 18.43553 | -66.00150 | 21 ft | 2 kts | 251° |
| 2026-05-06 14:29 | 18.43556 | -66.00136 | 21 ft | 0 kts | 268° |
| 2026-05-06 14:29 | 18.43556 | -66.00133 | 21 ft | 0 kts | 267° |
| 2026-05-06 14:33 | 18.43556 | -66.00137 | 21 ft | 1 kts | 267° |
| 2026-05-06 14:34 | 18.43555 | -66.00157 | 21 ft | 4 kts | 267° |
| 2026-05-06 14:34 | 18.43548 | -66.00202 | 21 ft | 7 kts | 241° |
| 2026-05-06 14:34 | 18.43490 | -66.00234 | 21 ft | 10 kts | 207° |
| 2026-05-06 14:34 | 18.43465 | -66.00316 | 21 ft | 13 kts | 270° |
| 2026-05-06 14:35 | 18.43465 | -66.00433 | 21 ft | 16 kts | 270° |
| 2026-05-06 14:35 | 18.43464 | -66.00571 | 20 ft | 19 kts | 270° |
| 2026-05-06 14:35 | 18.43465 | -66.00729 | 19 ft | 21 kts | 270° |
| 2026-05-06 14:35 | 18.43466 | -66.00904 | 19 ft | 23 kts | 270° |
| 2026-05-06 14:36 | 18.43466 | -66.01091 | 18 ft | 24 kts | 270° |
| 2026-05-06 14:36 | 18.43468 | -66.01265 | 18 ft | 17 kts | 270° |
| 2026-05-06 14:36 | 18.43428 | -66.01360 | 18 ft | 14 kts | 196° |
| 2026-05-06 14:36 | 18.43350 | -66.01322 | 18 ft | 14 kts | 85° |
| 2026-05-06 14:37 | 18.43355 | -66.01208 | 18 ft | 15 kts | 89° |
| 2026-05-06 14:37 | 18.43353 | -66.00913 | 19 ft | 74 kts | 90° |
| 2026-05-06 14:37 | 18.43355 | -66.00047 | 21 ft | 142 kts | 89° |
| 2026-05-06 14:37 | 18.43364 | -65.98855 | 401 ft | 161 kts | 90° |
| 2026-05-06 14:38 | 18.43364 | -65.97645 | 1168 ft | 158 kts | 90° |
| 2026-05-06 14:38 | 18.43354 | -65.96457 | 1985 ft | 154 kts | 91° |
| 2026-05-06 14:38 | 18.43354 | -65.95202 | 2559 ft | 168 kts | 90° |
| 2026-05-06 14:38 | 18.43537 | -65.93919 | 3240 ft | 176 kts | 62° |
| 2026-05-06 14:39 | 18.44664 | -65.93253 | 3941 ft | 190 kts | 2° |
| 2026-05-06 14:39 | 18.45921 | -65.93922 | 4689 ft | 198 kts | 305° |
| 2026-05-06 14:39 | 18.46218 | -65.95336 | 5355 ft | 202 kts | 262° |
| 2026-05-06 14:39 | 18.45983 | -65.96875 | 5801 ft | 222 kts | 261° |
| 2026-05-06 14:40 | 18.45735 | -65.98640 | 6374 ft | 240 kts | 260° |
| 2026-05-06 14:40 | 18.45436 | -66.00536 | 7039 ft | 255 kts | 261° |
| 2026-05-06 14:40 | 18.45200 | -66.02597 | 7696 ft | 271 kts | 264° |
| 2026-05-06 14:40 | 18.45098 | -66.04674 | 8285 ft | 287 kts | 269° |
| 2026-05-06 14:41 | 18.45112 | -66.06799 | 8977 ft | 297 kts | 271° |
| 2026-05-06 14:41 | 18.45185 | -66.09116 | 9905 ft | 299 kts | 272° |
| 2026-05-06 14:41 | 18.45284 | -66.11505 | 10785 ft | 304 kts | 272° |
| 2026-05-06 14:41 | 18.45395 | -66.13896 | 11268 ft | 322 kts | 272° |
| 2026-05-06 14:42 | 18.45519 | -66.16532 | 11697 ft | 341 kts | 273° |
| 2026-05-06 14:42 | 18.45653 | -66.19305 | 12130 ft | 358 kts | 273° |
| 2026-05-06 14:42 | 18.45792 | -66.22163 | 12842 ft | 364 kts | 273° |
| 2026-05-06 14:42 | 18.45934 | -66.25088 | 13675 ft | 366 kts | 273° |
| 2026-05-06 14:43 | 18.46074 | -66.27978 | 14439 ft | 370 kts | 273° |
| 2026-05-06 14:43 | 18.46217 | -66.30954 | 15259 ft | 373 kts | 274° |
| 2026-05-06 14:43 | 18.46362 | -66.33966 | 16007 ft | 376 kts | 274° |
| 2026-05-06 14:43 | 18.46507 | -66.36982 | 16750 ft | 380 kts | 274° |
| 2026-05-06 14:44 | 18.46656 | -66.40068 | 17485 ft | 384 kts | 274° |
| 2026-05-06 14:44 | 18.46801 | -66.43130 | 18170 ft | 387 kts | 274° |
| 2026-05-06 14:44 | 18.46946 | -66.46179 | 18793 ft | 390 kts | 274° |
| 2026-05-06 14:45 | 18.47239 | -66.52367 | 19963 ft | 398 kts | 275° |
| 2026-05-06 14:45 | 18.47389 | -66.55562 | 20514 ft | 402 kts | 275° |
| 2026-05-06 14:45 | 18.47540 | -66.58811 | 21067 ft | 406 kts | 275° |
| 2026-05-06 14:45 | 18.47688 | -66.62024 | 21598 ft | 409 kts | 275° |
| 2026-05-06 14:46 | 18.47830 | -66.65241 | 22101 ft | 412 kts | 275° |
| 2026-05-06 14:46 | 18.47972 | -66.68509 | 22605 ft | 415 kts | 275° |
| 2026-05-06 14:46 | 18.48113 | -66.71761 | 23103 ft | 418 kts | 275° |
| 2026-05-06 14:46 | 18.48254 | -66.75017 | 23598 ft | 421 kts | 275° |
| 2026-05-06 14:47 | 18.48396 | -66.78335 | 24096 ft | 423 kts | 274° |
| 2026-05-06 14:47 | 18.48537 | -66.81631 | 24587 ft | 426 kts | 274° |
| 2026-05-06 14:47 | 18.48679 | -66.84981 | 25082 ft | 428 kts | 274° |
| 2026-05-06 14:47 | 18.48832 | -66.88347 | 25557 ft | 431 kts | 275° |
| 2026-05-06 14:48 | 18.48990 | -66.91738 | 26036 ft | 433 kts | 275° |
| 2026-05-06 14:48 | 18.49147 | -66.95149 | 26506 ft | 435 kts | 275° |
| 2026-05-06 14:48 | 18.49303 | -66.98566 | 26972 ft | 437 kts | 275° |
| 2026-05-06 14:48 | 18.49461 | -67.02026 | 27428 ft | 440 kts | 275° |
| 2026-05-06 14:49 | 18.49614 | -67.05437 | 27873 ft | 442 kts | 274° |
| 2026-05-06 14:49 | 18.49768 | -67.08876 | 28319 ft | 444 kts | 274° |
| 2026-05-06 14:49 | 18.49824 | -67.12350 | 28753 ft | 446 kts | 271° |
| 2026-05-06 14:49 | 18.49769 | -67.15891 | 29189 ft | 448 kts | 271° |
| 2026-05-06 14:50 | 18.49700 | -67.19436 | 29645 ft | 449 kts | 270° |
| 2026-05-06 14:50 | 18.49630 | -67.22943 | 30224 ft | 446 kts | 270° |
| 2026-05-06 14:50 | 18.49559 | -67.26482 | 30807 ft | 443 kts | 270° |
| 2026-05-06 14:50 | 18.49488 | -67.29974 | 31349 ft | 441 kts | 270° |
| 2026-05-06 14:51 | 18.49417 | -67.33393 | 31867 ft | 439 kts | 270° |
| 2026-05-06 14:51 | 18.49347 | -67.36848 | 32381 ft | 437 kts | 270° |
| 2026-05-06 14:51 | 18.49276 | -67.40253 | 32868 ft | 435 kts | 270° |
| 2026-05-06 14:51 | 18.49206 | -67.43639 | 33364 ft | 433 kts | 270° |
| 2026-05-06 14:52 | 18.49136 | -67.46931 | 33849 ft | 432 kts | 270° |
| 2026-05-06 14:52 | 18.49064 | -67.50283 | 34323 ft | 430 kts | 270° |
| 2026-05-06 14:52 | 18.48993 | -67.53586 | 34780 ft | 429 kts | 270° |
| 2026-05-06 14:52 | 18.48923 | -67.56821 | 35210 ft | 427 kts | 270° |
| 2026-05-06 14:53 | 18.48853 | -67.60058 | 35634 ft | 425 kts | 270° |
| 2026-05-06 14:53 | 18.48839 | -67.60703 | 35719 ft | 425 kts | 270° |
| 2026-05-06 14:53 | 18.48810 | -67.62018 | 35884 ft | 424 kts | 270° |
| 2026-05-06 14:54 | 18.48738 | -67.65277 | 36275 ft | 423 kts | 269° |
| 2026-05-06 14:54 | 18.48665 | -67.68568 | 36624 ft | 423 kts | 269° |
| 2026-05-06 14:54 | 18.48592 | -67.71845 | 36894 ft | 423 kts | 269° |
| 2026-05-06 14:54 | 18.48516 | -67.75189 | 37115 ft | 425 kts | 269° |
| 2026-05-06 14:55 | 18.48441 | -67.78516 | 37339 ft | 426 kts | 269° |
| 2026-05-06 14:55 | 18.48363 | -67.81877 | 37580 ft | 426 kts | 269° |
| 2026-05-06 14:55 | 18.48286 | -67.85249 | 37791 ft | 427 kts | 269° |
| 2026-05-06 14:55 | 18.48209 | -67.88577 | 37954 ft | 429 kts | 269° |
| 2026-05-06 14:56 | 18.48141 | -67.91479 | 38087 ft | 430 kts | 269° |
| 2026-05-06 14:56 | 18.47988 | -67.97928 | 38087 ft | 431 kts | 269° |
| 2026-05-06 14:57 | 18.47831 | -68.04684 | 38091 ft | 432 kts | 270° |
| 2026-05-06 14:57 | 18.47678 | -68.11447 | 38087 ft | 432 kts | 270° |
| 2026-05-06 14:58 | 18.47521 | -68.18205 | 38092 ft | 433 kts | 270° |
| 2026-05-06 14:58 | 18.47360 | -68.24989 | 38099 ft | 433 kts | 270° |
| 2026-05-06 14:59 | 18.47196 | -68.31760 | 38094 ft | 433 kts | 270° |
| 2026-05-06 14:59 | 18.47030 | -68.38547 | 38093 ft | 433 kts | 270° |
| 2026-05-06 15:00 | 18.46863 | -68.45278 | 38096 ft | 433 kts | 270° |
| 2026-05-06 15:00 | 18.46692 | -68.52065 | 38093 ft | 434 kts | 270° |
| 2026-05-06 15:01 | 18.46517 | -68.58901 | 38092 ft | 435 kts | 270° |
| 2026-05-06 15:01 | 18.46341 | -68.65670 | 38098 ft | 436 kts | 270° |
| 2026-05-06 15:02 | 18.46161 | -68.72495 | 38106 ft | 437 kts | 270° |
| 2026-05-06 15:02 | 18.45980 | -68.79290 | 38109 ft | 437 kts | 270° |
| 2026-05-06 15:03 | 18.45796 | -68.86136 | 38106 ft | 437 kts | 270° |
| 2026-05-06 15:03 | 18.45610 | -68.92955 | 38111 ft | 436 kts | 270° |
| 2026-05-06 15:04 | 18.45419 | -68.99785 | 38110 ft | 437 kts | 270° |
| 2026-05-06 15:04 | 18.45227 | -69.06574 | 38106 ft | 437 kts | 270° |
| 2026-05-06 15:05 | 18.45034 | -69.13394 | 38103 ft | 437 kts | 270° |
| 2026-05-06 15:05 | 18.44839 | -69.20197 | 38102 ft | 437 kts | 271° |
| 2026-05-06 15:06 | 18.44640 | -69.27017 | 38099 ft | 438 kts | 271° |
| 2026-05-06 15:06 | 18.44438 | -69.33843 | 38101 ft | 438 kts | 271° |
| 2026-05-06 15:07 | 18.44233 | -69.40696 | 38099 ft | 438 kts | 271° |
| 2026-05-06 15:07 | 18.44041 | -69.47000 | 38100 ft | 438 kts | 271° |
| 2026-05-06 15:08 | 18.43879 | -69.52306 | 38101 ft | 439 kts | 271° |
| 2026-05-06 15:08 | 18.43664 | -69.59197 | 38096 ft | 440 kts | 272° |
| 2026-05-06 15:09 | 18.43454 | -69.66052 | 38096 ft | 440 kts | 272° |
| 2026-05-06 15:09 | 18.43458 | -69.72900 | 38096 ft | 441 kts | 274° |
| 2026-05-06 15:10 | 18.43493 | -69.79759 | 38099 ft | 441 kts | 274° |
| 2026-05-06 15:10 | 18.43521 | -69.86349 | 38100 ft | 441 kts | 274° |
| 2026-05-06 15:11 | 18.43548 | -69.92821 | 38102 ft | 441 kts | 274° |
| 2026-05-06 15:11 | 18.43755 | -69.99571 | 38101 ft | 439 kts | 278° |
| 2026-05-06 15:12 | 18.44303 | -70.05961 | 38105 ft | 439 kts | 279° |
| 2026-05-06 15:12 | 18.44866 | -70.12387 | 38115 ft | 440 kts | 279° |
| 2026-05-06 15:13 | 18.45268 | -70.18793 | 38128 ft | 442 kts | 277° |
| 2026-05-06 15:13 | 18.45542 | -70.25245 | 38140 ft | 443 kts | 277° |
| 2026-05-06 15:14 | 18.45809 | -70.31702 | 38151 ft | 441 kts | 277° |
| 2026-05-06 15:14 | 18.46078 | -70.38158 | 38154 ft | 442 kts | 277° |
| 2026-05-06 15:15 | 18.46343 | -70.44607 | 38155 ft | 442 kts | 277° |
| 2026-05-06 15:15 | 18.46604 | -70.51042 | 38168 ft | 442 kts | 278° |
| 2026-05-06 15:16 | 18.46867 | -70.57527 | 38167 ft | 443 kts | 278° |
| 2026-05-06 15:16 | 18.47126 | -70.63971 | 38156 ft | 443 kts | 278° |
| 2026-05-06 15:17 | 18.47388 | -70.70564 | 38151 ft | 443 kts | 278° |
| 2026-05-06 15:17 | 18.47644 | -70.77026 | 38147 ft | 443 kts | 278° |
| 2026-05-06 15:18 | 18.47897 | -70.83491 | 38137 ft | 443 kts | 278° |
| 2026-05-06 15:18 | 18.48146 | -70.89970 | 38141 ft | 445 kts | 278° |
| 2026-05-06 15:19 | 18.48398 | -70.96476 | 38143 ft | 445 kts | 278° |
| 2026-05-06 15:19 | 18.48646 | -71.02980 | 38139 ft | 446 kts | 279° |
| 2026-05-06 15:20 | 18.48891 | -71.09467 | 38140 ft | 445 kts | 279° |
| 2026-05-06 15:20 | 18.49133 | -71.15977 | 38131 ft | 444 kts | 279° |
| 2026-05-06 15:21 | 18.49376 | -71.22491 | 38124 ft | 445 kts | 279° |
| 2026-05-06 15:21 | 18.49614 | -71.28967 | 38118 ft | 445 kts | 279° |
| 2026-05-06 15:22 | 18.49850 | -71.35500 | 38107 ft | 446 kts | 279° |
| 2026-05-06 15:22 | 18.50086 | -71.42022 | 38108 ft | 445 kts | 279° |
| 2026-05-06 15:23 | 18.50315 | -71.48522 | 38103 ft | 444 kts | 279° |
| 2026-05-06 15:23 | 18.50544 | -71.54980 | 38098 ft | 445 kts | 279° |
| 2026-05-06 15:24 | 18.50772 | -71.61497 | 38084 ft | 445 kts | 279° |
| 2026-05-06 15:24 | 18.50997 | -71.68011 | 38077 ft | 445 kts | 279° |
| 2026-05-06 15:25 | 18.51220 | -71.74543 | 38068 ft | 446 kts | 279° |
| 2026-05-06 15:25 | 18.51436 | -71.81014 | 38063 ft | 445 kts | 279° |
| 2026-05-06 15:26 | 18.51713 | -71.87527 | 38061 ft | 443 kts | 282° |
| 2026-05-06 15:26 | 18.52480 | -71.93947 | 38065 ft | 439 kts | 286° |
| 2026-05-06 15:27 | 18.53392 | -72.00290 | 38067 ft | 438 kts | 286° |
| 2026-05-06 15:27 | 18.54297 | -72.06619 | 38074 ft | 439 kts | 286° |
| 2026-05-06 15:28 | 18.55202 | -72.12975 | 38088 ft | 439 kts | 286° |
| 2026-05-06 15:28 | 18.56103 | -72.19336 | 38107 ft | 439 kts | 286° |
| 2026-05-06 15:29 | 18.56874 | -72.25696 | 38123 ft | 443 kts | 282° |
| 2026-05-06 15:29 | 18.57050 | -72.32195 | 38123 ft | 449 kts | 276° |
| 2026-05-06 15:30 | 18.56542 | -72.38814 | 38115 ft | 455 kts | 270° |
| 2026-05-06 15:30 | 18.55643 | -72.45424 | 38105 ft | 458 kts | 270° |
| 2026-05-06 15:31 | 18.54731 | -72.52034 | 38097 ft | 457 kts | 270° |
| 2026-05-06 15:31 | 18.53826 | -72.58614 | 38085 ft | 457 kts | 270° |
| 2026-05-06 15:32 | 18.52455 | -72.68595 | 38067 ft | 458 kts | 269° |
| 2026-05-06 15:32 | 18.51545 | -72.75197 | 38051 ft | 459 kts | 269° |
| 2026-05-06 15:33 | 18.50628 | -72.81844 | 38044 ft | 459 kts | 269° |
| 2026-05-06 15:33 | 18.49709 | -72.88471 | 38042 ft | 459 kts | 269° |
| 2026-05-06 15:34 | 18.48801 | -72.95100 | 38043 ft | 459 kts | 269° |
| 2026-05-06 15:34 | 18.47912 | -73.01731 | 38046 ft | 459 kts | 270° |
| 2026-05-06 15:35 | 18.47017 | -73.08383 | 38047 ft | 458 kts | 269° |
| 2026-05-06 15:35 | 18.46125 | -73.14981 | 38047 ft | 458 kts | 270° |
| 2026-05-06 15:36 | 18.45222 | -73.21632 | 38048 ft | 458 kts | 269° |
| 2026-05-06 15:36 | 18.44323 | -73.28251 | 38046 ft | 459 kts | 269° |
| 2026-05-06 15:37 | 18.43420 | -73.34867 | 38045 ft | 459 kts | 269° |
| 2026-05-06 15:37 | 18.42512 | -73.41509 | 38045 ft | 459 kts | 269° |
| 2026-05-06 15:38 | 18.41605 | -73.48119 | 38046 ft | 458 kts | 269° |
| 2026-05-06 15:38 | 18.40695 | -73.54733 | 38047 ft | 458 kts | 269° |
| 2026-05-06 15:39 | 18.39783 | -73.61350 | 38054 ft | 459 kts | 269° |
| 2026-05-06 15:39 | 18.38859 | -73.68032 | 38060 ft | 459 kts | 269° |
| 2026-05-06 15:40 | 18.37944 | -73.74641 | 38066 ft | 459 kts | 269° |
| 2026-05-06 15:40 | 18.37020 | -73.81293 | 38072 ft | 459 kts | 269° |
| 2026-05-06 15:41 | 18.36094 | -73.87939 | 38083 ft | 459 kts | 269° |
| 2026-05-06 15:41 | 18.35170 | -73.94552 | 38086 ft | 459 kts | 269° |
| 2026-05-06 15:42 | 18.34229 | -74.01276 | 38096 ft | 460 kts | 269° |
| 2026-05-06 15:42 | 18.33241 | -74.08312 | 38092 ft | 459 kts | 269° |
| 2026-05-06 15:43 | 18.32231 | -74.15490 | 38082 ft | 460 kts | 269° |
| 2026-05-06 15:43 | 18.31213 | -74.22701 | 38067 ft | 461 kts | 269° |
| 2026-05-06 15:44 | 18.30199 | -74.29866 | 38056 ft | 460 kts | 268° |
| 2026-05-06 15:44 | 18.29206 | -74.36865 | 38049 ft | 460 kts | 268° |
| 2026-05-06 15:45 | 18.28239 | -74.43654 | 38042 ft | 460 kts | 268° |
| 2026-05-06 15:45 | 18.27281 | -74.50354 | 38042 ft | 460 kts | 268° |
| 2026-05-06 15:46 | 18.26323 | -74.57051 | 38041 ft | 460 kts | 268° |
| 2026-05-06 15:46 | 18.25363 | -74.63739 | 38041 ft | 460 kts | 268° |
| 2026-05-06 15:47 | 18.24352 | -74.70739 | 38039 ft | 460 kts | 267° |
| 2026-05-06 15:47 | 18.23381 | -74.77408 | 38039 ft | 461 kts | 267° |
| 2026-05-06 15:48 | 18.22407 | -74.84051 | 38043 ft | 461 kts | 267° |
| 2026-05-06 15:48 | 18.21440 | -74.90659 | 38040 ft | 460 kts | 267° |
| 2026-05-06 15:49 | 18.20407 | -74.97706 | 38040 ft | 461 kts | 267° |
| 2026-05-06 15:49 | 18.19353 | -75.04844 | 38039 ft | 462 kts | 267° |
| 2026-05-06 15:50 | 18.18292 | -75.12028 | 38040 ft | 462 kts | 267° |
| 2026-05-06 15:50 | 18.17226 | -75.19233 | 38042 ft | 462 kts | 267° |
| 2026-05-06 15:51 | 18.16162 | -75.26397 | 37941 ft | 463 kts | 267° |
| 2026-05-06 15:51 | 18.15624 | -75.30014 | 37617 ft | 461 kts | 267° |
| 2026-05-06 15:51 | 18.15087 | -75.33617 | 37263 ft | 458 kts | 267° |
| 2026-05-06 15:52 | 18.14556 | -75.37178 | 36713 ft | 456 kts | 267° |
| 2026-05-06 15:52 | 18.14023 | -75.40746 | 35923 ft | 456 kts | 267° |
| 2026-05-06 15:52 | 18.13492 | -75.44300 | 35125 ft | 456 kts | 266° |
| 2026-05-06 15:52 | 18.12966 | -75.47831 | 34325 ft | 456 kts | 266° |
| 2026-05-06 15:53 | 18.12431 | -75.51398 | 33497 ft | 457 kts | 266° |
| 2026-05-06 15:53 | 18.11898 | -75.54972 | 32701 ft | 459 kts | 266° |
| 2026-05-06 15:53 | 18.11363 | -75.58536 | 31912 ft | 460 kts | 266° |
| 2026-05-06 15:53 | 18.10813 | -75.62182 | 31012 ft | 463 kts | 266° |
| 2026-05-06 15:54 | 18.10269 | -75.65788 | 30084 ft | 466 kts | 265° |
| 2026-05-06 15:54 | 18.09716 | -75.69453 | 29118 ft | 469 kts | 265° |
| 2026-05-06 15:54 | 18.09166 | -75.73091 | 28365 ft | 466 kts | 265° |
| 2026-05-06 15:54 | 18.08616 | -75.76709 | 27787 ft | 459 kts | 265° |
| 2026-05-06 15:55 | 18.08076 | -75.80254 | 27228 ft | 452 kts | 265° |
| 2026-05-06 15:55 | 18.07544 | -75.83741 | 26663 ft | 446 kts | 265° |
| 2026-05-06 15:55 | 18.07016 | -75.87209 | 26086 ft | 440 kts | 265° |
| 2026-05-06 15:55 | 18.06497 | -75.90613 | 25518 ft | 434 kts | 265° |
| 2026-05-06 15:56 | 18.05986 | -75.93977 | 24952 ft | 429 kts | 265° |
| 2026-05-06 15:56 | 18.05484 | -75.97280 | 24393 ft | 425 kts | 265° |
| 2026-05-06 15:56 | 18.04985 | -76.00561 | 23831 ft | 420 kts | 265° |
| 2026-05-06 15:56 | 18.04493 | -76.03775 | 23285 ft | 416 kts | 265° |
| 2026-05-06 15:57 | 18.04001 | -76.06993 | 22727 ft | 412 kts | 265° |
| 2026-05-06 15:57 | 18.03515 | -76.10165 | 22175 ft | 409 kts | 265° |
| 2026-05-06 15:57 | 18.03032 | -76.13323 | 21642 ft | 406 kts | 265° |
| 2026-05-06 15:57 | 18.02558 | -76.16438 | 21095 ft | 403 kts | 265° |
| 2026-05-06 15:58 | 18.02085 | -76.19540 | 20537 ft | 401 kts | 264° |
| 2026-05-06 15:58 | 18.01609 | -76.22643 | 19972 ft | 399 kts | 264° |
| 2026-05-06 15:58 | 18.01135 | -76.25729 | 19410 ft | 397 kts | 263° |
| 2026-05-06 15:58 | 18.00659 | -76.28822 | 18837 ft | 395 kts | 263° |
| 2026-05-06 15:59 | 18.00178 | -76.31941 | 18263 ft | 392 kts | 262° |
| 2026-05-06 15:59 | 17.99699 | -76.35051 | 17706 ft | 390 kts | 262° |
| 2026-05-06 15:59 | 17.99227 | -76.38091 | 17130 ft | 388 kts | 262° |
| 2026-05-06 15:59 | 17.98758 | -76.41102 | 16545 ft | 385 kts | 262° |
| 2026-05-06 16:00 | 17.98281 | -76.44164 | 15978 ft | 383 kts | 262° |
| 2026-05-06 16:00 | 17.97813 | -76.47171 | 15390 ft | 381 kts | 262° |
| 2026-05-06 16:00 | 17.97350 | -76.50153 | 14818 ft | 379 kts | 262° |
| 2026-05-06 16:00 | 17.96875 | -76.53208 | 14225 ft | 377 kts | 262° |
| 2026-05-06 16:01 | 17.96416 | -76.56154 | 13637 ft | 374 kts | 261° |
| 2026-05-06 16:01 | 17.95951 | -76.59141 | 13045 ft | 371 kts | 261° |
| 2026-05-06 16:01 | 17.95488 | -76.62105 | 12462 ft | 369 kts | 261° |
| 2026-05-06 16:01 | 17.95033 | -76.65022 | 11870 ft | 366 kts | 261° |
| 2026-05-06 16:02 | 17.94587 | -76.67875 | 11297 ft | 363 kts | 261° |
| 2026-05-06 16:02 | 17.94138 | -76.70742 | 10871 ft | 355 kts | 261° |
| 2026-05-06 16:02 | 17.93715 | -76.73441 | 10621 ft | 341 kts | 261° |
| 2026-05-06 16:02 | 17.93307 | -76.76035 | 10428 ft | 327 kts | 261° |
| 2026-05-06 16:03 | 17.92921 | -76.78535 | 10247 ft | 315 kts | 261° |
| 2026-05-06 16:03 | 17.92590 | -76.80948 | 10083 ft | 302 kts | 262° |
| 2026-05-06 16:03 | 17.92287 | -76.83254 | 9835 ft | 296 kts | 262° |
| 2026-05-06 16:03 | 17.91984 | -76.85542 | 9430 ft | 295 kts | 262° |
| 2026-05-06 16:04 | 17.91676 | -76.87857 | 9037 ft | 294 kts | 262° |
| 2026-05-06 16:04 | 17.91368 | -76.90148 | 8646 ft | 293 kts | 262° |
| 2026-05-06 16:04 | 17.91048 | -76.92519 | 8242 ft | 292 kts | 262° |
| 2026-05-06 16:04 | 17.90733 | -76.94840 | 7848 ft | 291 kts | 262° |
| 2026-05-06 16:05 | 17.90416 | -76.97173 | 7467 ft | 290 kts | 261° |
| 2026-05-06 16:05 | 17.90104 | -76.99471 | 7089 ft | 289 kts | 261° |
| 2026-05-06 16:05 | 17.89789 | -77.01789 | 6723 ft | 286 kts | 262° |
| 2026-05-06 16:05 | 17.89492 | -77.03988 | 6616 ft | 274 kts | 263° |
| 2026-05-06 16:06 | 17.89645 | -77.06114 | 6200 ft | 275 kts | 294° |
| 2026-05-06 16:06 | 17.90910 | -77.07719 | 5770 ft | 269 kts | 333° |
| 2026-05-06 16:06 | 17.92851 | -77.08195 | 5423 ft | 257 kts | 5° |
| 2026-05-06 16:06 | 17.94780 | -77.07980 | 5089 ft | 253 kts | 12° |
| 2026-05-06 16:07 | 17.96699 | -77.07618 | 4759 ft | 252 kts | 15° |
| 2026-05-06 16:07 | 17.98592 | -77.07174 | 4427 ft | 250 kts | 17° |
| 2026-05-06 16:07 | 18.00437 | -77.06634 | 4076 ft | 248 kts | 24° |
| 2026-05-06 16:07 | 18.01958 | -77.05530 | 3709 ft | 241 kts | 55° |
| 2026-05-06 16:08 | 18.02655 | -77.03786 | 3360 ft | 236 kts | 85° |
| 2026-05-06 16:08 | 18.02438 | -77.01943 | 3023 ft | 234 kts | 105° |
| 2026-05-06 16:08 | 18.01974 | -77.00163 | 2885 ft | 224 kts | 104° |
| 2026-05-06 16:08 | 18.01573 | -76.98495 | 2849 ft | 210 kts | 103° |
| 2026-05-06 16:09 | 18.01185 | -76.96915 | 2809 ft | 197 kts | 106° |
| 2026-05-06 16:09 | 18.00718 | -76.95486 | 2797 ft | 182 kts | 110° |
| 2026-05-06 16:09 | 18.00217 | -76.94200 | 2796 ft | 166 kts | 112° |
| 2026-05-06 16:09 | 17.99725 | -76.93038 | 2575 ft | 153 kts | 113° |
| 2026-05-06 16:10 | 17.99263 | -76.91976 | 2338 ft | 142 kts | 113° |
| 2026-05-06 16:10 | 17.98836 | -76.91003 | 2122 ft | 132 kts | 114° |
| 2026-05-06 16:10 | 17.98414 | -76.90038 | 1968 ft | 133 kts | 114° |
| 2026-05-06 16:10 | 17.97996 | -76.89085 | 1786 ft | 131 kts | 114° |
| 2026-05-06 16:11 | 17.97570 | -76.88114 | 1609 ft | 132 kts | 115° |
| 2026-05-06 16:11 | 17.97162 | -76.87185 | 1431 ft | 123 kts | 114° |
| 2026-05-06 16:11 | 17.96783 | -76.86322 | 1260 ft | 120 kts | 115° |
| 2026-05-06 16:11 | 17.96310 | -76.85502 | 1094 ft | 119 kts | 124° |
| 2026-05-06 16:12 | 17.95844 | -76.84713 | 960 ft | 119 kts | 115° |
| 2026-05-06 16:12 | 17.95465 | -76.83865 | 822 ft | 119 kts | 115° |
| 2026-05-06 16:12 | 17.95130 | -76.82995 | 677 ft | 118 kts | 111° |
| 2026-05-06 16:12 | 17.94788 | -76.82130 | 531 ft | 118 kts | 114° |
| 2026-05-06 16:13 | 17.94488 | -76.81255 | 344 ft | 118 kts | 110° |
| 2026-05-06 16:13 | 17.94166 | -76.80403 | 192 ft | 117 kts | 113° |
| 2026-05-06 16:13 | 17.93859 | -76.79536 | 56 ft | 116 kts | 112° |
| 2026-05-06 16:13 | 17.93561 | -76.78766 | 35 ft | 82 kts | 111° |
| 2026-05-06 16:14 | 17.93398 | -76.78336 | 34 ft | 41 kts | 112° |
| 2026-05-06 16:14 | 17.93309 | -76.78110 | 35 ft | 24 kts | 111° |
| 2026-05-06 16:14 | 17.93248 | -76.77939 | 36 ft | 22 kts | 109° |
| 2026-05-06 16:14 | 17.93208 | -76.77790 | 36 ft | 16 kts | 71° |
| 2026-05-06 16:15 | 17.93309 | -76.77736 | 37 ft | 13 kts | 359° |
| 2026-05-06 16:15 | 17.93369 | -76.77816 | 36 ft | 12 kts | 290° |
| 2026-05-06 16:15 | 17.93404 | -76.77911 | 36 ft | 12 kts | 290° |
| 2026-05-06 16:15 | 17.93458 | -76.77949 | 35 ft | 10 kts | 22° |
| 2026-05-06 16:16 | 17.93537 | -76.77914 | 36 ft | 11 kts | 21° |
| 2026-05-06 16:16 | 17.93603 | -76.77887 | 36 ft | 6 kts | 21° |
| 2026-05-06 16:16 | 17.93643 | -76.77899 | 36 ft | 7 kts | 298° |
| 2026-05-06 16:16 | 17.93658 | -76.77938 | 36 ft | 2 kts | 289° |
| 2026-05-06 16:17 | 17.93659 | -76.77942 | 36 ft | 0 kts | 289° |